sensor_id;sensor_type;location;lat;lon;timestamp;pressure;altitude;pressure_sealevel;temperature;humidity
31681;BME280;18281;51.364;9.566;2023-04-25T00:00:48;99228.88;;;4.46;98.40
31681;BME280;18281;51.364;9.566;2023-04-25T00:03:15;99215.88;;;4.46;97.92
31681;BME280;18281;51.364;9.566;2023-04-25T00:05:41;99223.09;;;4.39;99.53
31681;BME280;18281;51.364;9.566;2023-04-25T00:08:06;99222.28;;;4.37;100.00
31681;BME280;18281;51.364;9.566;2023-04-25T00:10:32;99223.91;;;4.40;99.51
31681;BME280;18281;51.364;9.566;2023-04-25T00:12:57;99222.69;;;4.28;100.00
31681;BME280;18281;51.364;9.566;2023-04-25T00:15:23;99219.91;;;4.33;100.00
31681;BME280;18281;51.364;9.566;2023-04-25T00:17:49;99233.88;;;4.30;100.00
31681;BME280;18281;51.364;9.566;2023-04-25T00:20:14;99230.38;;;4.31;100.00
31681;BME280;18281;51.364;9.566;2023-04-25T00:22:40;99229.50;;;4.31;100.00
31681;BME280;18281;51.364;9.566;2023-04-25T00:25:06;99232.25;;;4.28;100.00
31681;BME280;18281;51.364;9.566;2023-04-25T00:27:32;99230.63;;;4.25;100.00
31681;BME280;18281;51.364;9.566;2023-04-25T00:29:58;99229.88;;;4.21;100.00
31681;BME280;18281;51.364;9.566;2023-04-25T00:32:23;99225.69;;;4.19;100.00
31681;BME280;18281;51.364;9.566;2023-04-25T00:34:49;99233.41;;;4.20;100.00
31681;BME280;18281;51.364;9.566;2023-04-25T00:37:14;99231.00;;;4.16;100.00
31681;BME280;18281;51.364;9.566;2023-04-25T00:39:39;99230.09;;;4.17;100.00
31681;BME280;18281;51.364;9.566;2023-04-25T00:42:05;99231.19;;;4.11;100.00
31681;BME280;18281;51.364;9.566;2023-04-25T00:44:30;99231.56;;;4.02;100.00
31681;BME280;18281;51.364;9.566;2023-04-25T00:46:57;99226.44;;;4.00;100.00
31681;BME280;18281;51.364;9.566;2023-04-25T00:49:22;99223.84;;;4.00;100.00
31681;BME280;18281;51.364;9.566;2023-04-25T00:51:48;99227.50;;;3.95;100.00
31681;BME280;18281;51.364;9.566;2023-04-25T00:54:14;99220.75;;;3.91;100.00
31681;BME280;18281;51.364;9.566;2023-04-25T00:56:39;99224.28;;;3.89;100.00
31681;BME280;18281;51.364;9.566;2023-04-25T00:59:05;99221.03;;;3.84;100.00
31681;BME280;18281;51.364;9.566;2023-04-25T01:01:31;99209.97;;;3.79;100.00
31681;BME280;18281;51.364;9.566;2023-04-25T01:03:58;99222.22;;;3.76;100.00
31681;BME280;18281;51.364;9.566;2023-04-25T01:06:24;99221.34;;;3.77;100.00
31681;BME280;18281;51.364;9.566;2023-04-25T01:08:49;99225.84;;;3.71;100.00
31681;BME280;18281;51.364;9.566;2023-04-25T01:11:16;99215.47;;;3.71;100.00
31681;BME280;18281;51.364;9.566;2023-04-25T01:13:41;99219.84;;;3.71;100.00
31681;BME280;18281;51.364;9.566;2023-04-25T01:16:06;99217.47;;;3.65;100.00
31681;BME280;18281;51.364;9.566;2023-04-25T01:18:32;99215.97;;;3.59;100.00
31681;BME280;18281;51.364;9.566;2023-04-25T01:21:10;99217.66;;;3.60;100.00
31681;BME280;18281;51.364;9.566;2023-04-25T01:23:36;99221.22;;;3.58;100.00
31681;BME280;18281;51.364;9.566;2023-04-25T01:26:02;99217.06;;;3.53;100.00
31681;BME280;18281;51.364;9.566;2023-04-25T01:28:28;99224.03;;;3.51;100.00
31681;BME280;18281;51.364;9.566;2023-04-25T01:30:54;99230.34;;;3.44;100.00
31681;BME280;18281;51.364;9.566;2023-04-25T01:33:21;99226.19;;;3.40;100.00
31681;BME280;18281;51.364;9.566;2023-04-25T01:35:46;99217.88;;;3.32;100.00
31681;BME280;18281;51.364;9.566;2023-04-25T01:38:12;99223.81;;;3.34;100.00
31681;BME280;18281;51.364;9.566;2023-04-25T01:40:39;99221.22;;;3.34;100.00
31681;BME280;18281;51.364;9.566;2023-04-25T01:43:05;99220.69;;;3.26;100.00
31681;BME280;18281;51.364;9.566;2023-04-25T01:45:31;99221.56;;;3.25;100.00
31681;BME280;18281;51.364;9.566;2023-04-25T01:47:56;99221.69;;;3.21;100.00
31681;BME280;18281;51.364;9.566;2023-04-25T01:50:25;99226.03;;;3.21;100.00
31681;BME280;18281;51.364;9.566;2023-04-25T01:52:50;99233.19;;;3.14;100.00
31681;BME280;18281;51.364;9.566;2023-04-25T01:55:16;99235.75;;;3.16;100.00
31681;BME280;18281;51.364;9.566;2023-04-25T01:57:41;99232.53;;;3.09;100.00
31681;BME280;18281;51.364;9.566;2023-04-25T02:00:07;99235.16;;;3.08;100.00
31681;BME280;18281;51.364;9.566;2023-04-25T02:02:34;99230.03;;;3.06;100.00
31681;BME280;18281;51.364;9.566;2023-04-25T02:05:00;99236.25;;;3.02;100.00
31681;BME280;18281;51.364;9.566;2023-04-25T02:07:26;99238.84;;;3.02;100.00
31681;BME280;18281;51.364;9.566;2023-04-25T02:09:51;99239.72;;;3.01;100.00
31681;BME280;18281;51.364;9.566;2023-04-25T02:12:18;99238.84;;;3.02;100.00
31681;BME280;18281;51.364;9.566;2023-04-25T02:14:43;99236.50;;;2.96;100.00
31681;BME280;18281;51.364;9.566;2023-04-25T02:17:09;99231.31;;;2.96;100.00
31681;BME280;18281;51.364;9.566;2023-04-25T02:19:34;99228.13;;;2.87;100.00
31681;BME280;18281;51.364;9.566;2023-04-25T02:21:59;99228.81;;;2.93;100.00
31681;BME280;18281;51.364;9.566;2023-04-25T02:24:25;99227.34;;;2.85;100.00
31681;BME280;18281;51.364;9.566;2023-04-25T02:26:50;99228.25;;;2.84;100.00
31681;BME280;18281;51.364;9.566;2023-04-25T02:29:16;99223.88;;;2.85;100.00
31681;BME280;18281;51.364;9.566;2023-04-25T02:31:41;99224.13;;;2.79;100.00
31681;BME280;18281;51.364;9.566;2023-04-25T02:34:07;99231.16;;;2.75;100.00
31681;BME280;18281;51.364;9.566;2023-04-25T02:36:32;99222.59;;;2.73;100.00
31681;BME280;18281;51.364;9.566;2023-04-25T02:39:00;99220.78;;;2.75;100.00
31681;BME280;18281;51.364;9.566;2023-04-25T02:41:26;99223.38;;;2.75;100.00
31681;BME280;18281;51.364;9.566;2023-04-25T02:43:51;99221.69;;;2.74;100.00
31681;BME280;18281;51.364;9.566;2023-04-25T02:46:16;99218.31;;;2.72;100.00
31681;BME280;18281;51.364;9.566;2023-04-25T02:48:42;99219.28;;;2.69;100.00
31681;BME280;18281;51.364;9.566;2023-04-25T02:51:07;99218.78;;;2.58;100.00
31681;BME280;18281;51.364;9.566;2023-04-25T02:53:32;99217.56;;;2.68;100.00
31681;BME280;18281;51.364;9.566;2023-04-25T02:55:59;99213.47;;;2.63;100.00
31681;BME280;18281;51.364;9.566;2023-04-25T02:58:24;99210.75;;;2.66;100.00
31681;BME280;18281;51.364;9.566;2023-04-25T03:00:50;99220.34;;;2.64;100.00
31681;BME280;18281;51.364;9.566;2023-04-25T03:03:15;99221.19;;;2.64;100.00
31681;BME280;18281;51.364;9.566;2023-04-25T03:05:43;99218.19;;;2.75;100.00
31681;BME280;18281;51.364;9.566;2023-04-25T03:08:08;99220.09;;;2.70;100.00
31681;BME280;18281;51.364;9.566;2023-04-25T03:10:34;99217.38;;;2.75;100.00
31681;BME280;18281;51.364;9.566;2023-04-25T03:12:59;99217.44;;;2.73;100.00
31681;BME280;18281;51.364;9.566;2023-04-25T03:15:25;99221.47;;;2.80;100.00
31681;BME280;18281;51.364;9.566;2023-04-25T03:17:50;99220.53;;;2.83;100.00
31681;BME280;18281;51.364;9.566;2023-04-25T03:20:15;99216.91;;;2.87;100.00
31681;BME280;18281;51.364;9.566;2023-04-25T03:22:41;99217.13;;;2.81;100.00
31681;BME280;18281;51.364;9.566;2023-04-25T03:25:07;99218.13;;;2.77;100.00
31681;BME280;18281;51.364;9.566;2023-04-25T03:27:32;99218.81;;;2.82;100.00
31681;BME280;18281;51.364;9.566;2023-04-25T03:29:58;99215.22;;;2.86;100.00
31681;BME280;18281;51.364;9.566;2023-04-25T03:32:23;99220.19;;;2.92;100.00
31681;BME280;18281;51.364;9.566;2023-04-25T03:34:48;99225.44;;;2.91;100.00
31681;BME280;18281;51.364;9.566;2023-04-25T03:37:14;99228.88;;;2.91;100.00
31681;BME280;18281;51.364;9.566;2023-04-25T03:39:39;99219.34;;;2.92;100.00
31681;BME280;18281;51.364;9.566;2023-04-25T03:42:04;99227.00;;;2.95;100.00
31681;BME280;18281;51.364;9.566;2023-04-25T03:44:30;99227.97;;;2.92;100.00
31681;BME280;18281;51.364;9.566;2023-04-25T03:46:55;99226.94;;;2.96;100.00
31681;BME280;18281;51.364;9.566;2023-04-25T03:49:20;99229.94;;;3.09;100.00
31681;BME280;18281;51.364;9.566;2023-04-25T03:51:46;99232.63;;;3.06;100.00
31681;BME280;18281;51.364;9.566;2023-04-25T03:54:11;99238.34;;;3.16;100.00
31681;BME280;18281;51.364;9.566;2023-04-25T03:56:36;99234.41;;;3.05;100.00
31681;BME280;18281;51.364;9.566;2023-04-25T03:59:02;99231.41;;;3.16;100.00
31681;BME280;18281;51.364;9.566;2023-04-25T04:01:27;99228.69;;;3.19;100.00
31681;BME280;18281;51.364;9.566;2023-04-25T04:03:52;99231.22;;;3.21;100.00
31681;BME280;18281;51.364;9.566;2023-04-25T04:06:17;99234.75;;;3.20;100.00
31681;BME280;18281;51.364;9.566;2023-04-25T04:08:43;99238.28;;;3.17;100.00
31681;BME280;18281;51.364;9.566;2023-04-25T04:11:09;99233.66;;;3.26;100.00
31681;BME280;18281;51.364;9.566;2023-04-25T04:13:34;99238.63;;;3.32;100.00
31681;BME280;18281;51.364;9.566;2023-04-25T04:16:00;99240.91;;;3.39;100.00
31681;BME280;18281;51.364;9.566;2023-04-25T04:18:25;99239.16;;;3.40;100.00
31681;BME280;18281;51.364;9.566;2023-04-25T04:20:50;99239.03;;;3.43;100.00
31681;BME280;18281;51.364;9.566;2023-04-25T04:23:16;99246.22;;;3.36;100.00
31681;BME280;18281;51.364;9.566;2023-04-25T04:25:41;99249.41;;;3.43;100.00
31681;BME280;18281;51.364;9.566;2023-04-25T04:28:07;99256.28;;;3.46;100.00
31681;BME280;18281;51.364;9.566;2023-04-25T04:30:32;99253.50;;;3.50;100.00
31681;BME280;18281;51.364;9.566;2023-04-25T04:32:58;99258.81;;;3.47;100.00
31681;BME280;18281;51.364;9.566;2023-04-25T04:35:24;99260.38;;;3.51;100.00
31681;BME280;18281;51.364;9.566;2023-04-25T04:37:50;99256.69;;;3.57;100.00
31681;BME280;18281;51.364;9.566;2023-04-25T04:40:16;99260.94;;;3.60;100.00
31681;BME280;18281;51.364;9.566;2023-04-25T04:42:42;99264.31;;;3.62;100.00
31681;BME280;18281;51.364;9.566;2023-04-25T04:45:08;99262.00;;;3.54;100.00
31681;BME280;18281;51.364;9.566;2023-04-25T04:47:34;99268.09;;;3.53;100.00
31681;BME280;18281;51.364;9.566;2023-04-25T04:50:02;99272.34;;;3.55;100.00
31681;BME280;18281;51.364;9.566;2023-04-25T04:52:28;99271.84;;;3.46;100.00
31681;BME280;18281;51.364;9.566;2023-04-25T04:54:53;99277.78;;;3.49;100.00
31681;BME280;18281;51.364;9.566;2023-04-25T04:57:18;99272.25;;;3.57;100.00
31681;BME280;18281;51.364;9.566;2023-04-25T04:59:44;99276.69;;;3.55;100.00
31681;BME280;18281;51.364;9.566;2023-04-25T05:02:09;99277.47;;;3.57;100.00
31681;BME280;18281;51.364;9.566;2023-04-25T05:04:35;99278.13;;;3.62;100.00
31681;BME280;18281;51.364;9.566;2023-04-25T05:07:00;99275.59;;;3.61;100.00
31681;BME280;18281;51.364;9.566;2023-04-25T05:09:26;99284.19;;;3.63;100.00
31681;BME280;18281;51.364;9.566;2023-04-25T05:11:52;99282.63;;;3.59;100.00
31681;BME280;18281;51.364;9.566;2023-04-25T05:14:17;99289.47;;;3.60;100.00
31681;BME280;18281;51.364;9.566;2023-04-25T05:16:43;99293.00;;;3.59;100.00
31681;BME280;18281;51.364;9.566;2023-04-25T05:19:08;99293.91;;;3.58;100.00
31681;BME280;18281;51.364;9.566;2023-04-25T05:21:34;99288.50;;;3.62;100.00
31681;BME280;18281;51.364;9.566;2023-04-25T05:24:00;99291.03;;;3.64;100.00
31681;BME280;18281;51.364;9.566;2023-04-25T05:26:25;99300.66;;;3.62;100.00
31681;BME280;18281;51.364;9.566;2023-04-25T05:28:51;99295.53;;;3.60;100.00
31681;BME280;18281;51.364;9.566;2023-04-25T05:31:16;99306.63;;;3.64;100.00
31681;BME280;18281;51.364;9.566;2023-04-25T05:33:41;99306.59;;;3.65;100.00
31681;BME280;18281;51.364;9.566;2023-04-25T05:36:07;99303.00;;;3.68;100.00
31681;BME280;18281;51.364;9.566;2023-04-25T05:38:33;99312.41;;;3.70;100.00
31681;BME280;18281;51.364;9.566;2023-04-25T05:40:58;99312.47;;;3.69;100.00
31681;BME280;18281;51.364;9.566;2023-04-25T05:43:23;99321.75;;;3.76;100.00
31681;BME280;18281;51.364;9.566;2023-04-25T05:45:49;99318.81;;;3.85;100.00
31681;BME280;18281;51.364;9.566;2023-04-25T05:48:14;99318.75;;;3.87;100.00
31681;BME280;18281;51.364;9.566;2023-04-25T05:50:39;99324.81;;;3.86;100.00
31681;BME280;18281;51.364;9.566;2023-04-25T05:53:05;99328.03;;;3.93;100.00
31681;BME280;18281;51.364;9.566;2023-04-25T05:55:31;99334.00;;;3.95;100.00
31681;BME280;18281;51.364;9.566;2023-04-25T05:57:56;99334.06;;;3.93;100.00
31681;BME280;18281;51.364;9.566;2023-04-25T06:00:21;99337.59;;;3.92;100.00
31681;BME280;18281;51.364;9.566;2023-04-25T06:02:47;99348.94;;;3.89;100.00
31681;BME280;18281;51.364;9.566;2023-04-25T06:05:13;99352.25;;;3.93;100.00
31681;BME280;18281;51.364;9.566;2023-04-25T06:07:38;99357.50;;;3.92;100.00
31681;BME280;18281;51.364;9.566;2023-04-25T06:10:04;99345.53;;;3.87;100.00
31681;BME280;18281;51.364;9.566;2023-04-25T06:12:34;99357.50;;;3.92;100.00
31681;BME280;18281;51.364;9.566;2023-04-25T06:15:00;99354.84;;;3.93;100.00
31681;BME280;18281;51.364;9.566;2023-04-25T06:17:26;99360.69;;;3.98;100.00
31681;BME280;18281;51.364;9.566;2023-04-25T06:19:51;99364.03;;;4.02;100.00
31681;BME280;18281;51.364;9.566;2023-04-25T06:22:18;99364.94;;;4.01;100.00
31681;BME280;18281;51.364;9.566;2023-04-25T06:24:44;99369.16;;;4.03;100.00
31681;BME280;18281;51.364;9.566;2023-04-25T06:27:10;99368.50;;;3.98;100.00
31681;BME280;18281;51.364;9.566;2023-04-25T06:29:36;99368.56;;;4.62;100.00
31681;BME280;18281;51.364;9.566;2023-04-25T06:32:01;99376.63;;;5.39;100.00
31681;BME280;18281;51.364;9.566;2023-04-25T06:34:26;99363.03;;;5.71;100.00
31681;BME280;18281;51.364;9.566;2023-04-25T06:36:52;99363.09;;;5.88;100.00
31681;BME280;18281;51.364;9.566;2023-04-25T06:39:17;99367.47;;;5.88;100.00
31681;BME280;18281;51.364;9.566;2023-04-25T06:41:43;99370.63;;;5.56;100.00
31681;BME280;18281;51.364;9.566;2023-04-25T06:44:08;99377.28;;;5.43;100.00
31681;BME280;18281;51.364;9.566;2023-04-25T06:46:33;99383.75;;;5.34;100.00
31681;BME280;18281;51.364;9.566;2023-04-25T06:48:59;99376.91;;;5.11;100.00
31681;BME280;18281;51.364;9.566;2023-04-25T06:51:24;99371.59;;;4.94;100.00
31681;BME280;18281;51.364;9.566;2023-04-25T06:53:53;99375.31;;;4.88;100.00
31681;BME280;18281;51.364;9.566;2023-04-25T06:56:18;99388.56;;;4.82;100.00
31681;BME280;18281;51.364;9.566;2023-04-25T06:58:44;99380.88;;;4.79;100.00
31681;BME280;18281;51.364;9.566;2023-04-25T07:01:09;99385.25;;;4.78;100.00
31681;BME280;18281;51.364;9.566;2023-04-25T07:03:35;99391.13;;;4.83;100.00
31681;BME280;18281;51.364;9.566;2023-04-25T07:06:02;99397.09;;;4.85;100.00
31681;BME280;18281;51.364;9.566;2023-04-25T07:08:28;99390.63;;;4.73;100.00
31681;BME280;18281;51.364;9.566;2023-04-25T07:10:54;99399.41;;;4.71;100.00
31681;BME280;18281;51.364;9.566;2023-04-25T07:13:19;99394.19;;;4.71;100.00
31681;BME280;18281;51.364;9.566;2023-04-25T07:15:45;99400.00;;;4.78;100.00
31681;BME280;18281;51.364;9.566;2023-04-25T07:18:10;99406.22;;;4.73;100.00
31681;BME280;18281;51.364;9.566;2023-04-25T07:20:35;99410.47;;;4.76;100.00
31681;BME280;18281;51.364;9.566;2023-04-25T07:23:01;99411.38;;;4.75;100.00
31681;BME280;18281;51.364;9.566;2023-04-25T07:25:26;99405.56;;;4.68;100.00
31681;BME280;18281;51.364;9.566;2023-04-25T07:27:51;99415.13;;;4.68;100.00
31681;BME280;18281;51.364;9.566;2023-04-25T07:30:17;99414.84;;;4.76;100.00
31681;BME280;18281;51.364;9.566;2023-04-25T07:32:42;99414.22;;;4.69;100.00
31681;BME280;18281;51.364;9.566;2023-04-25T07:35:08;99414.09;;;4.72;100.00
31681;BME280;18281;51.364;9.566;2023-04-25T07:37:34;99423.06;;;4.65;100.00
31681;BME280;18281;51.364;9.566;2023-04-25T07:39:59;99425.31;;;4.74;100.00
31681;BME280;18281;51.364;9.566;2023-04-25T07:42:25;99426.06;;;4.76;100.00
31681;BME280;18281;51.364;9.566;2023-04-25T07:44:50;99430.00;;;4.86;100.00
31681;BME280;18281;51.364;9.566;2023-04-25T07:47:16;99424.97;;;4.82;100.00
31681;BME280;18281;51.364;9.566;2023-04-25T07:49:44;99427.56;;;4.82;100.00
31681;BME280;18281;51.364;9.566;2023-04-25T07:52:10;99421.88;;;4.94;100.00
31681;BME280;18281;51.364;9.566;2023-04-25T07:54:35;99433.03;;;4.96;100.00
31681;BME280;18281;51.364;9.566;2023-04-25T07:57:00;99426.41;;;4.89;100.00
31681;BME280;18281;51.364;9.566;2023-04-25T07:59:27;99436.13;;;5.06;100.00
31681;BME280;18281;51.364;9.566;2023-04-25T08:01:52;99435.91;;;5.11;100.00
31681;BME280;18281;51.364;9.566;2023-04-25T08:04:18;99438.91;;;5.01;100.00
31681;BME280;18281;51.364;9.566;2023-04-25T08:06:43;99434.22;;;5.10;100.00
31681;BME280;18281;51.364;9.566;2023-04-25T08:09:09;99441.56;;;5.20;100.00
31681;BME280;18281;51.364;9.566;2023-04-25T08:11:35;99444.38;;;5.16;100.00
31681;BME280;18281;51.364;9.566;2023-04-25T08:14:01;99436.44;;;5.19;100.00
31681;BME280;18281;51.364;9.566;2023-04-25T08:16:27;99448.63;;;5.18;100.00
31681;BME280;18281;51.364;9.566;2023-04-25T08:18:52;99448.47;;;5.21;100.00
31681;BME280;18281;51.364;9.566;2023-04-25T08:21:17;99447.44;;;5.26;100.00
31681;BME280;18281;51.364;9.566;2023-04-25T08:23:43;99452.72;;;5.24;100.00
31681;BME280;18281;51.364;9.566;2023-04-25T08:26:08;99450.47;;;5.37;100.00
31681;BME280;18281;51.364;9.566;2023-04-25T08:28:33;99460.22;;;5.52;100.00
31681;BME280;18281;51.364;9.566;2023-04-25T08:30:59;99461.13;;;5.51;98.96
31681;BME280;18281;51.364;9.566;2023-04-25T08:33:25;99468.34;;;5.45;98.85
31681;BME280;18281;51.364;9.566;2023-04-25T08:35:51;99467.38;;;5.47;99.56
31681;BME280;18281;51.364;9.566;2023-04-25T08:38:17;99473.69;;;5.42;96.93
31681;BME280;18281;51.364;9.566;2023-04-25T08:40:43;99477.91;;;5.44;99.15
31681;BME280;18281;51.364;9.566;2023-04-25T08:43:09;99485.53;;;5.49;98.37
31681;BME280;18281;51.364;9.566;2023-04-25T08:45:41;99491.78;;;5.45;95.84
31681;BME280;18281;51.364;9.566;2023-04-25T08:48:11;99492.25;;;5.54;96.94
31681;BME280;18281;51.364;9.566;2023-04-25T08:50:39;99496.34;;;5.60;96.88
31681;BME280;18281;51.364;9.566;2023-04-25T08:53:08;99502.34;;;5.62;95.64
31681;BME280;18281;51.364;9.566;2023-04-25T08:55:37;99504.97;;;5.61;91.57
31681;BME280;18281;51.364;9.566;2023-04-25T08:58:04;99501.91;;;5.71;93.19
31681;BME280;18281;51.364;9.566;2023-04-25T09:00:30;99510.34;;;5.57;91.15
31681;BME280;18281;51.364;9.566;2023-04-25T09:02:56;99507.97;;;5.72;92.36
31681;BME280;18281;51.364;9.566;2023-04-25T09:05:23;99512.78;;;5.81;92.14
31681;BME280;18281;51.364;9.566;2023-04-25T09:07:48;99506.19;;;5.93;92.20
31681;BME280;18281;51.364;9.566;2023-04-25T09:10:14;99518.66;;;5.86;88.46
31681;BME280;18281;51.364;9.566;2023-04-25T09:12:39;99510.47;;;5.94;88.53
31681;BME280;18281;51.364;9.566;2023-04-25T09:15:09;99525.78;;;6.02;89.18
31681;BME280;18281;51.364;9.566;2023-04-25T09:17:35;99535.38;;;6.01;87.72
31681;BME280;18281;51.364;9.566;2023-04-25T09:20:08;99531.06;;;6.00;83.81
31681;BME280;18281;51.364;9.566;2023-04-25T09:22:35;99535.38;;;6.01;84.20
31681;BME280;18281;51.364;9.566;2023-04-25T09:25:09;99538.03;;;6.00;84.62
31681;BME280;18281;51.364;9.566;2023-04-25T09:27:34;99541.81;;;5.93;83.89
31681;BME280;18281;51.364;9.566;2023-04-25T09:30:00;99544.94;;;6.01;85.72
31681;BME280;18281;51.364;9.566;2023-04-25T09:32:26;99551.97;;;5.99;85.77
31681;BME280;18281;51.364;9.566;2023-04-25T09:34:56;99555.41;;;5.99;86.62
31681;BME280;18281;51.364;9.566;2023-04-25T09:37:23;99563.81;;;6.06;87.16
31681;BME280;18281;51.364;9.566;2023-04-25T09:39:59;99557.78;;;6.05;86.60
31681;BME280;18281;51.364;9.566;2023-04-25T09:42:28;99562.97;;;6.05;85.77
31681;BME280;18281;51.364;9.566;2023-04-25T09:44:56;99571.38;;;6.12;87.62
31681;BME280;18281;51.364;9.566;2023-04-25T09:47:25;99566.25;;;6.11;87.77
31681;BME280;18281;51.364;9.566;2023-04-25T09:49:52;99573.19;;;6.10;87.11
31681;BME280;18281;51.364;9.566;2023-04-25T09:52:20;99571.16;;;6.17;87.29
31681;BME280;18281;51.364;9.566;2023-04-25T09:54:46;99574.34;;;6.23;88.88
31681;BME280;18281;51.364;9.566;2023-04-25T09:57:20;99561.19;;;6.27;88.14
31681;BME280;18281;51.364;9.566;2023-04-25T09:59:50;99566.81;;;6.36;87.69
31681;BME280;18281;51.364;9.566;2023-04-25T10:02:21;99571.63;;;6.46;87.41
31681;BME280;18281;51.364;9.566;2023-04-25T10:04:52;99566.69;;;6.39;84.34
31681;BME280;18281;51.364;9.566;2023-04-25T10:07:22;99570.75;;;6.45;82.93
31681;BME280;18281;51.364;9.566;2023-04-25T10:09:55;99573.19;;;6.50;83.19
31681;BME280;18281;51.364;9.566;2023-04-25T10:12:24;99576.19;;;6.60;84.11
31681;BME280;18281;51.364;9.566;2023-04-25T10:14:50;99576.84;;;6.65;84.36
31681;BME280;18281;51.364;9.566;2023-04-25T10:17:17;99575.69;;;6.70;85.03
31681;BME280;18281;51.364;9.566;2023-04-25T10:19:43;99579.25;;;6.69;83.19
31681;BME280;18281;51.364;9.566;2023-04-25T10:22:13;99568.91;;;6.85;82.96
31681;BME280;18281;51.364;9.566;2023-04-25T10:24:41;99575.81;;;6.86;83.76
31681;BME280;18281;51.364;9.566;2023-04-25T10:27:07;99585.63;;;6.81;86.57
31681;BME280;18281;51.364;9.566;2023-04-25T10:29:32;99582.22;;;7.17;91.73
31681;BME280;18281;51.364;9.566;2023-04-25T10:31:58;99583.28;;;7.50;98.44
31681;BME280;18281;51.364;9.566;2023-04-25T10:34:25;99583.34;;;7.83;98.06
31681;BME280;18281;51.364;9.566;2023-04-25T10:37:03;99592.28;;;8.13;97.11
31681;BME280;18281;51.364;9.566;2023-04-25T10:39:28;99588.91;;;8.11;90.19
31681;BME280;18281;51.364;9.566;2023-04-25T10:41:57;99586.34;;;8.27;87.08
31681;BME280;18281;51.364;9.566;2023-04-25T10:44:27;99602.78;;;8.46;85.70
31681;BME280;18281;51.364;9.566;2023-04-25T10:46:55;99585.81;;;8.53;83.42
31681;BME280;18281;51.364;9.566;2023-04-25T10:49:38;99594.88;;;8.80;82.28
31681;BME280;18281;51.364;9.566;2023-04-25T10:52:16;99594.34;;;8.89;80.55
31681;BME280;18281;51.364;9.566;2023-04-25T10:54:49;99603.50;;;8.82;76.72
31681;BME280;18281;51.364;9.566;2023-04-25T10:57:44;99598.84;;;8.71;76.21
31681;BME280;18281;51.364;9.566;2023-04-25T11:00:19;99602.28;;;8.87;75.35
31681;BME280;18281;51.364;9.566;2023-04-25T11:02:48;99597.75;;;9.07;75.03
31681;BME280;18281;51.364;9.566;2023-04-25T11:05:32;99605.81;;;9.18;74.10
31681;BME280;18281;51.364;9.566;2023-04-25T11:07:59;99605.16;;;9.15;72.85
31681;BME280;18281;51.364;9.566;2023-04-25T11:10:32;99599.06;;;9.30;72.51
31681;BME280;18281;51.364;9.566;2023-04-25T11:13:00;99596.63;;;9.27;71.96
31681;BME280;18281;51.364;9.566;2023-04-25T11:15:26;99603.09;;;9.36;71.46
31681;BME280;18281;51.364;9.566;2023-04-25T11:17:54;99612.03;;;9.48;70.71
31681;BME280;18281;51.364;9.566;2023-04-25T11:20:26;99606.63;;;9.51;70.56
31681;BME280;18281;51.364;9.566;2023-04-25T11:22:53;99617.06;;;9.20;68.65
31681;BME280;18281;51.364;9.566;2023-04-25T11:25:22;99614.56;;;9.03;68.23
31681;BME280;18281;51.364;9.566;2023-04-25T11:27:55;99625.94;;;9.02;71.95
31681;BME280;18281;51.364;9.566;2023-04-25T11:30:25;99622.81;;;8.79;67.33
31681;BME280;18281;51.364;9.566;2023-04-25T11:32:53;99618.84;;;8.72;69.21
31681;BME280;18281;51.364;9.566;2023-04-25T11:35:19;99618.69;;;8.75;72.42
31681;BME280;18281;51.364;9.566;2023-04-25T11:37:46;99620.38;;;8.76;71.75
31681;BME280;18281;51.364;9.566;2023-04-25T11:40:12;99610.59;;;8.80;66.63
31681;BME280;18281;51.364;9.566;2023-04-25T11:42:45;99603.28;;;8.69;68.56
31681;BME280;18281;51.364;9.566;2023-04-25T11:45:12;99601.13;;;8.77;69.54
31681;BME280;18281;51.364;9.566;2023-04-25T11:47:38;99601.88;;;8.63;65.05
31681;BME280;18281;51.364;9.566;2023-04-25T11:50:06;99611.94;;;8.71;70.17
31681;BME280;18281;51.364;9.566;2023-04-25T11:52:40;99608.47;;;8.70;67.95
31681;BME280;18281;51.364;9.566;2023-04-25T11:55:23;99613.44;;;8.75;70.32
31681;BME280;18281;51.364;9.566;2023-04-25T11:57:49;99620.56;;;8.73;69.83
31681;BME280;18281;51.364;9.566;2023-04-25T12:00:20;99621.56;;;8.70;68.55
31681;BME280;18281;51.364;9.566;2023-04-25T12:02:47;99612.94;;;8.84;66.76
31681;BME280;18281;51.364;9.566;2023-04-25T12:05:15;99614.97;;;8.79;65.91
31681;BME280;18281;51.364;9.566;2023-04-25T12:07:41;99619.38;;;8.79;66.52
31681;BME280;18281;51.364;9.566;2023-04-25T12:12:52;99618.78;;;9.05;70.46
31681;BME280;18281;51.364;9.566;2023-04-25T12:15:24;99626.03;;;9.00;67.69
31681;BME280;18281;51.364;9.566;2023-04-25T12:18:44;99633.97;;;8.99;68.11
31681;BME280;18281;51.364;9.566;2023-04-25T12:21:06;99632.28;;;8.98;67.46
31681;BME280;18281;51.364;9.566;2023-04-25T12:23:32;99628.38;;;8.89;67.31
31681;BME280;18281;51.364;9.566;2023-04-25T12:25:57;99636.19;;;8.90;67.41
31681;BME280;18281;51.364;9.566;2023-04-25T12:28:24;99642.94;;;8.95;70.33
31681;BME280;18281;51.364;9.566;2023-04-25T12:31:07;99643.94;;;8.92;70.39
31681;BME280;18281;51.364;9.566;2023-04-25T12:33:35;99636.50;;;8.84;66.67
31681;BME280;18281;51.364;9.566;2023-04-25T12:36:03;99640.97;;;8.82;67.83
31681;BME280;18281;51.364;9.566;2023-04-25T12:38:41;99644.19;;;8.87;70.40
31681;BME280;18281;51.364;9.566;2023-04-25T12:41:07;99659.72;;;8.74;66.27
31681;BME280;18281;51.364;9.566;2023-04-25T12:43:33;99652.69;;;8.75;71.93
31681;BME280;18281;51.364;9.566;2023-04-25T12:45:58;99655.16;;;8.78;72.08
31681;BME280;18281;51.364;9.566;2023-04-25T12:48:24;99666.09;;;8.69;69.51
31681;BME280;18281;51.364;9.566;2023-04-25T12:50:54;99666.53;;;8.61;68.10
31681;BME280;18281;51.364;9.566;2023-04-25T12:53:21;99667.16;;;8.66;69.33
31681;BME280;18281;51.364;9.566;2023-04-25T12:55:47;99664.44;;;8.68;69.14
31681;BME280;18281;51.364;9.566;2023-04-25T12:58:17;99670.34;;;8.71;71.16
31681;BME280;18281;51.364;9.566;2023-04-25T13:00:44;99662.47;;;8.71;70.53
31681;BME280;18281;51.364;9.566;2023-04-25T13:03:10;99665.44;;;8.65;69.33
31681;BME280;18281;51.364;9.566;2023-04-25T13:05:38;99661.47;;;8.74;70.56